Terminal Aerodrome Forecast
Issued by NWS Binghamton, NY

Current Version | Previous Version | Text Only | Print | Product List | Glossary On
Versions: 1 2 3 4 5 6 7 8 9 10 11 12 13 14 15 16 17 18
000
FTUS41 KBGM 110900 AAA
TAFAVP
TAF AMD
KAVP 110900Z 1109/1206 VRB03KT P6SM SCT140
     FM111900 32008KT P6SM SCT050 PROB30 1121/1123 32010G20KT -SHRA
      OVC040
     FM112300 35006KT P6SM FEW050=

USA.gov is the U.S. government's official web portal to all federal, state and local government web resources and services.